Time;durP1;ratioP1;P1;durP2;ratioP2;P2;SDS_P1;SDS_P2;PMS_P1;PMS_P2;Temp;Humidity;BMP_temperature;BMP_pressure;BME280_temperature;BME280_humidity;BME280_pressure;Samples;Min_cycle;Max_cycle;Signal;HPM_P1;HPM_P2
2022/01/12 00:01:13;;;;;;;7.53;5.57;;;;;;;-1.31;100.00;100848.16;4993461;28;20092;-65
2022/01/12 00:03:39;;;;;;;8.27;5.53;;;;;;;-1.06;100.00;100883.06;4993805;28;20061;-64
2022/01/12 00:06:05;;;;;;;7.55;5.70;;;;;;;-1.22;100.00;100856.78;4993606;28;20523;-66
2022/01/12 00:08:32;;;;;;;8.45;5.85;;;;;;;-1.23;100.00;100850.09;4975998;28;20038;-66
2022/01/12 00:11:02;;;;;;;10.95;6.00;;;;;;;-1.18;100.00;100897.63;4993519;28;20129;-66
2022/01/12 00:13:27;;;;;;;8.93;5.95;;;;;;;-1.26;100.00;100856.63;4993593;28;20061;-66
2022/01/12 00:15:53;;;;;;;7.70;5.57;;;;;;;-1.18;100.00;100912.59;4993746;28;20037;-64
2022/01/12 00:18:20;;;;;;;7.82;5.60;;;;;;;-1.20;100.00;100912.56;4976076;28;20034;-64
2022/01/12 00:20:46;;;;;;;8.35;5.47;;;;;;;-1.69;100.00;100826.91;4993173;28;20133;-64
2022/01/12 00:23:12;;;;;;;8.32;5.68;;;;;;;-1.13;100.00;100926.09;4976042;28;20033;-63
2022/01/12 00:25:59;;;;;;;8.48;5.75;;;;;;;-1.13;100.00;100919.44;4993068;28;20038;-64
2022/01/12 00:33:59;;;;;;;7.55;5.55;;;;;;;-1.49;100.00;100865.84;4993288;28;20061;-64
2022/01/12 00:36:25;;;;;;;8.02;5.75;;;;;;;-1.19;100.00;100941.66;4975619;28;20042;-65
2022/01/12 00:38:50;;;;;;;11.13;5.90;;;;;;;-1.17;100.00;100940.06;4993071;28;20076;-66
2022/01/12 00:41:18;;;;;;;8.02;5.45;;;;;;;-1.27;100.00;100917.28;4993188;28;20026;-66
2022/01/12 00:43:47;;;;;;;8.48;5.43;;;;;;;-1.36;100.00;100915.31;4992249;28;20030;-65
2022/01/12 00:46:16;;;;;;;9.02;5.63;;;;;;;-1.34;100.00;100917.84;4975676;28;20031;-66
2022/01/12 00:48:41;;;;;;;8.45;5.72;;;;;;;-1.42;100.00;100881.84;4992586;28;20366;-63
2022/01/12 00:51:10;;;;;;;8.40;5.85;;;;;;;-1.15;100.00;100942.66;4992792;28;20030;-66
2022/01/12 00:53:35;;;;;;;9.50;5.90;;;;;;;-1.52;100.00;100887.28;4975264;28;20034;-66
2022/01/12 00:56:01;;;;;;;9.05;6.28;;;;;;;-1.48;100.00;100872.50;4992840;28;20034;-65
2022/01/12 00:58:26;;;;;;;10.77;5.68;;;;;;;-1.37;100.00;100893.69;4992613;28;20073;-65
2022/01/12 01:03:29;;;;;;;8.68;5.88;;;;;;;-1.61;100.00;100884.50;4143390;26;10001312;-66
2022/01/12 01:05:55;;;;;;;8.57;6.32;;;;;;;-1.36;100.00;100921.94;4975171;28;20039;-65
2022/01/12 01:08:21;;;;;;;9.73;6.32;;;;;;;-1.46;100.00;100912.44;4981365;28;20057;-65
2022/01/12 01:10:47;;;;;;;9.60;6.72;;;;;;;-1.41;100.00;100924.28;4991266;28;20500;-65
2022/01/12 01:13:25;;;;;;;10.70;6.57;;;;;;;-1.60;100.00;100873.72;4992469;28;20034;-65
2022/01/12 01:26:36;;;;;;;10.05;7.00;;;;;;;-1.43;100.00;100905.09;4992304;28;20419;-66
2022/01/12 01:29:02;;;;;;;9.50;6.60;;;;;;;-1.79;100.00;100829.88;4992146;28;20034;-64
2022/01/12 01:31:31;;;;;;;9.43;6.93;;;;;;;-1.22;100.00;100929.09;4974792;28;20030;-64
2022/01/12 01:34:05;;;;;;;9.15;6.70;;;;;;;-1.59;100.00;100880.41;4991720;28;20416;-64
2022/01/12 01:36:30;;;;;;;9.68;6.50;;;;;;;-1.30;100.00;100917.16;4992183;28;20511;-64
2022/01/12 01:38:56;;;;;;;8.82;6.70;;;;;;;-1.36;100.00;100915.31;4991819;28;20031;-64
2022/01/12 01:41:22;;;;;;;10.88;6.72;;;;;;;-1.71;100.00;100840.13;4992136;28;20023;-64
2022/01/12 01:53:18;;;;;;;9.05;6.80;;;;;;;-1.28;100.00;100928.91;4974635;28;20038;-65
2022/01/12 01:54:52;;;;;;;8.88;6.15;;;;;;;-1.59;100.00;100906.19;4991213;28;20072;-66
2022/01/12 01:57:17;;;;;;;7.63;5.35;;;;;;;-1.39;100.00;100951.75;4991194;28;20061;-64
2022/01/12 01:59:45;;;;;;;11.60;6.30;;;;;;;-1.40;100.00;100945.06;4991913;28;20038;-63
2022/01/12 02:02:11;;;;;;;8.02;5.53;;;;;;;-1.61;100.00;100909.41;4973948;28;20073;-64
2022/01/12 02:04:36;;;;;;;8.45;5.97;;;;;;;-1.79;100.00;100870.59;4991537;28;20493;-66
2022/01/12 02:07:02;;;;;;;8.75;6.10;;;;;;;-1.60;100.00;100921.06;4991772;28;20033;-64
2022/01/12 02:09:27;;;;;;;8.27;5.95;;;;;;;-1.41;100.00;100965.81;4991175;28;20061;-64
2022/01/12 02:11:53;;;;;;;10.68;6.15;;;;;;;-1.40;100.00;100947.56;4991430;28;20062;-65
2022/01/12 02:14:20;;;;;;;9.88;5.85;;;;;;;-1.61;100.00;100935.19;4991695;28;20455;-64
2022/01/12 02:16:55;;;;;;;9.63;6.45;;;;;;;-1.40;100.00;100985.81;4991226;28;20038;-64
2022/01/12 02:35:54;;;;;;;9.75;6.35;;;;;;;-1.55;100.00;100987.75;4991063;28;20032;-64
2022/01/12 02:40:53;;;;;;;9.55;5.65;;;;;;;-1.57;100.00;100995.97;4990954;28;20046;-65
2022/01/12 02:43:39;;;;;;;8.43;6.05;;;;;;;-1.50;100.00;101020.31;4991097;28;20512;-65
2022/01/12 02:53:38;;;;;;;10.65;5.78;;;;;;;-1.75;100.00;100983.69;4991012;28;20121;-65
2022/01/12 02:54:20;;;;;;;8.93;5.57;;;;;;;-1.63;100.00;100973.31;4990380;28;20498;-65
2022/01/12 02:56:46;;;;;;;10.20;6.22;;;;;;;-1.65;100.00;100984.84;4990922;28;20026;-66
2022/01/12 02:59:11;;;;;;;9.07;5.55;;;;;;;-1.85;100.00;100994.94;4990840;28;20037;-65
2022/01/12 03:04:12;;;;;;;8.07;5.47;;;;;;;-1.82;100.00;100982.59;4991086;28;20483;-65
2022/01/12 03:06:39;;;;;;;9.25;5.70;;;;;;;-1.56;100.00;101030.03;4991303;28;20122;-65
2022/01/12 03:09:08;;;;;;;9.30;5.47;;;;;;;-1.65;100.00;100998.19;4994734;28;20345;-64
2022/01/12 03:11:35;;;;;;;9.95;5.72;;;;;;;-1.56;100.00;101032.53;4994922;28;20033;-64
2022/01/12 03:14:01;;;;;;;8.50;6.07;;;;;;;-1.53;100.00;101025.19;4976816;28;20480;-65
2022/01/12 03:16:28;;;;;;;7.78;5.38;;;;;;;-1.49;100.00;101027.88;4994889;28;20030;-65
2022/01/12 03:18:56;;;;;;;9.52;6.15;;;;;;;-1.53;100.00;101035.16;4994755;28;20055;-65
2022/01/12 03:21:25;;;;;;;8.70;5.38;;;;;;;-1.45;100.00;101018.84;4994444;28;20054;-64
2022/01/12 03:23:52;;;;;;;8.55;5.63;;;;;;;-1.50;100.00;101022.78;4994691;28;20041;-65
2022/01/12 03:26:18;;;;;;;12.32;6.55;;;;;;;-1.46;100.00;101042.91;4994392;28;20526;-65
2022/01/12 03:28:44;;;;;;;11.68;6.78;;;;;;;-1.63;100.00;100994.09;4976665;28;20038;-66
2022/01/12 04:09:07;;;;;;;11.63;7.03;;;;;;;-1.38;100.00;101101.41;4974155;28;20117;-65
2022/01/12 04:11:32;;;;;;;14.02;7.10;;;;;;;-1.29;100.00;101093.41;4974574;28;20449;-65
2022/01/12 04:13:58;;;;;;;11.70;6.72;;;;;;;-1.34;100.00;101085.75;4956768;28;20030;-66
2022/01/12 04:16:23;;;;;;;12.80;7.20;;;;;;;-1.31;100.00;101085.03;4973869;28;20125;-65
2022/01/12 04:18:49;;;;;;;13.73;7.32;;;;;;;-1.37;100.00;101087.28;4973266;28;20053;-65
2022/01/12 04:21:14;;;;;;;12.50;7.15;;;;;;;-1.68;100.00;101037.09;4956746;28;20038;-65
2022/01/12 04:23:41;;;;;;;11.95;7.35;;;;;;;-1.40;100.00;101084.66;4973993;28;20033;-65
2022/01/12 04:26:11;;;;;;;14.55;7.72;;;;;;;-1.38;100.00;101080.59;4956671;28;20416;-64
2022/01/12 04:28:40;;;;;;;14.05;8.13;;;;;;;-1.51;100.00;101084.28;4973783;28;20031;-65
2022/01/12 04:31:06;;;;;;;15.32;7.78;;;;;;;-1.55;100.00;101074.13;4973651;28;20023;-64
2022/01/12 04:33:34;;;;;;;14.50;8.10;;;;;;;-1.38;100.00;101108.88;4956691;28;20056;-66
2022/01/12 04:35:59;;;;;;;12.70;7.45;;;;;;;-1.37;100.00;101123.06;4973496;28;20413;-66
2022/01/12 04:38:27;;;;;;;12.85;7.30;;;;;;;-1.22;100.00;101120.28;4973982;28;20031;-65
2022/01/12 04:40:53;;;;;;;12.98;7.93;;;;;;;-1.59;100.00;101088.13;4956364;28;20053;-65
2022/01/12 04:43:21;;;;;;;13.45;7.43;;;;;;;-1.59;100.00;101077.28;4956054;28;20481;-65
2022/01/12 04:50:41;;;;;;;15.80;8.25;;;;;;;-1.39;100.00;101138.75;4973511;28;20412;-65
2022/01/12 04:53:07;;;;;;;14.60;7.50;;;;;;;-1.86;100.00;101055.50;4973789;28;20037;-65
2022/01/12 04:55:33;;;;;;;15.48;8.32;;;;;;;-1.38;100.00;101151.25;4973562;28;20034;-64
2022/01/12 04:57:59;;;;;;;15.13;8.18;;;;;;;-1.58;100.00;101101.41;4973235;28;20039;-66
2022/01/12 05:00:26;;;;;;;14.75;8.73;;;;;;;-1.41;100.00;101157.78;4973163;28;20035;-66
2022/01/12 05:08:36;;;;;;;13.40;8.00;;;;;;;-1.44;100.00;101160.13;4977428;28;20076;-66
2022/01/12 05:13:52;;;;;;;11.85;6.95;;;;;;;-1.45;100.00;101178.38;4992547;28;20566;-66
2022/01/12 05:16:18;;;;;;;13.30;7.18;;;;;;;-1.63;100.00;101152.72;4992364;28;20026;-66
2022/01/12 05:18:45;;;;;;;13.50;7.70;;;;;;;-1.68;100.00;101134.28;4992281;28;20045;-66
2022/01/12 05:21:11;;;;;;;13.38;7.85;;;;;;;-1.58;100.00;101168.72;4992303;28;20097;-67
2022/01/12 05:23:38;;;;;;;14.77;8.57;;;;;;;-1.62;100.00;101185.19;4992228;28;20492;-65
2022/01/12 05:26:05;;;;;;;16.05;8.10;;;;;;;-1.45;100.00;101174.25;4974780;28;20034;-67
2022/01/12 05:28:31;;;;;;;13.48;7.70;;;;;;;-1.67;100.00;101158.38;4992040;28;20462;-65
2022/01/12 05:30:58;;;;;;;15.63;9.00;;;;;;;-1.63;100.00;101185.13;4991827;28;20042;-65
2022/01/12 05:33:25;;;;;;;16.35;8.40;;;;;;;-1.53;100.00;101184.72;4992396;28;20034;-65
2022/01/12 05:35:55;;;;;;;14.70;8.32;;;;;;;-1.56;100.00;101187.06;4991659;28;20065;-67
2022/01/12 05:38:22;;;;;;;14.13;7.22;;;;;;;-1.56;100.00;101194.53;4991838;28;20038;-66
2022/01/12 05:40:50;;;;;;;16.52;8.90;;;;;;;-1.77;100.00;101153.06;4991870;28;20500;-68
2022/01/12 05:43:28;;;;;;;15.82;8.70;;;;;;;-1.70;100.00;101179.03;4991941;28;20038;-65
2022/01/12 05:45:55;;;;;;;12.80;7.13;;;;;;;-1.57;100.00;101205.31;4991762;28;20100;-67
2022/01/12 05:50:49;;;;;;;13.32;7.13;;;;;;;-1.45;100.00;101221.63;4991359;28;20431;-66
2022/01/12 05:53:17;;;;;;;12.95;8.07;;;;;;;-1.54;100.00;101231.22;4991844;28;20022;-66
2022/01/12 05:55:42;;;;;;;13.57;7.72;;;;;;;-1.55;100.00;101233.66;4991733;28;20061;-66
2022/01/12 05:58:08;;;;;;;13.85;7.53;;;;;;;-1.88;100.00;101186.63;4991437;28;20535;-66
2022/01/12 06:00:33;;;;;;;13.25;7.75;;;;;;;-1.49;100.00;101244.72;4991507;28;20026;-66
2022/01/12 06:02:59;;;;;;;13.57;7.97;;;;;;;-1.58;100.00;101221.03;4990705;28;20050;-66
2022/01/12 06:05:24;;;;;;;15.32;8.43;;;;;;;-1.42;100.00;101255.78;4988458;28;20026;-67
2022/01/12 06:07:52;;;;;;;14.05;8.52;;;;;;;-1.86;100.00;101207.47;4989622;28;20038;-66
2022/01/12 06:10:22;;;;;;;16.73;8.85;;;;;;;-1.70;100.00;101225.56;4990655;28;20444;-66
2022/01/12 06:12:47;;;;;;;13.60;7.30;;;;;;;-1.42;100.00;101273.22;4991283;28;20105;-67
2022/01/12 06:15:13;;;;;;;15.82;7.97;;;;;;;-1.45;100.00;101278.97;4991341;28;20117;-66
2022/01/12 06:17:38;;;;;;;14.13;8.25;;;;;;;-1.64;100.00;101250.75;4990850;28;20057;-66
2022/01/12 06:20:05;;;;;;;15.13;8.10;;;;;;;-1.24;100.00;101299.78;4990870;28;20034;-67
2022/01/12 06:22:31;;;;;;;14.63;8.35;;;;;;;-1.38;100.00;101298.34;4989503;28;20536;-66
2022/01/12 06:24:59;;;;;;;15.10;7.82;;;;;;;-1.47;100.00;101283.03;4990579;28;20065;-66
2022/01/12 06:27:28;;;;;;;15.18;8.07;;;;;;;-1.61;100.00;101254.19;4989313;28;20489;-66
2022/01/12 06:30:15;;;;;;;14.38;7.93;;;;;;;-1.67;100.00;101246.47;4990770;28;20042;-66
2022/01/12 06:32:40;;;;;;;15.10;8.15;;;;;;;-1.53;100.00;101289.41;4989909;28;20031;-67
2022/01/12 06:35:06;;;;;;;17.85;8.38;;;;;;;-1.30;100.00;101312.00;4991295;28;20026;-66
2022/01/12 06:37:32;;;;;;;15.55;8.35;;;;;;;-1.43;100.00;101274.91;4991309;28;20488;-67
2022/01/12 06:39:57;;;;;;;13.57;7.82;;;;;;;-1.67;100.00;101248.09;4991274;28;20396;-67
2022/01/12 06:42:25;;;;;;;13.13;7.15;;;;;;;-1.40;100.00;101314.03;4990483;28;20523;-67
2022/01/12 06:44:51;;;;;;;12.13;7.00;;;;;;;-1.55;100.00;101289.34;4991167;28;20504;-67
2022/01/12 06:47:18;;;;;;;13.57;7.68;;;;;;;-1.46;100.00;101281.38;4991246;28;20128;-67
2022/01/12 06:49:44;;;;;;;12.30;6.97;;;;;;;-1.70;100.00;101248.81;4991212;28;20031;-67
2022/01/12 06:52:09;;;;;;;14.02;7.38;;;;;;;-1.13;100.00;101340.97;4990909;28;20041;-67
2022/01/12 06:54:34;;;;;;;12.50;6.88;;;;;;;-1.37;100.00;101309.19;4989945;28;20038;-67
2022/01/12 06:57:00;;;;;;;12.07;7.18;;;;;;;-1.27;100.00;101324.56;4990723;28;20034;-67
2022/01/12 06:59:25;;;;;;;11.27;6.75;;;;;;;-1.16;100.00;101297.59;4989760;28;20103;-67
2022/01/12 07:01:51;;;;;;;11.93;7.20;;;;;;;-0.92;100.00;101296.06;4991092;28;20054;-68
2022/01/12 07:04:17;;;;;;;17.15;7.20;;;;;;;-0.60;100.00;101298.16;4988481;28;20492;-66
2022/01/12 07:06:42;;;;;;;10.80;6.50;;;;;;;-0.37;100.00;101313.97;4988800;28;20097;-67
2022/01/12 07:09:07;;;;;;;14.02;7.38;;;;;;;0.79;100.00;101360.66;4990153;28;20030;-67
2022/01/12 07:11:33;;;;;;;12.00;6.93;;;;;;;0.42;100.00;101288.53;4990032;28;20065;-67
2022/01/12 07:13:58;;;;;;;13.35;7.03;;;;;;;0.06;100.00;101333.91;4988572;28;20053;-67
2022/01/12 07:16:24;;;;;;;10.85;6.55;;;;;;;0.13;100.00;101368.31;4988997;28;20040;-66
2022/01/12 07:18:49;;;;;;;13.98;7.97;;;;;;;-0.90;100.00;101300.34;4990247;28;20130;-67
2022/01/12 07:21:15;;;;;;;12.55;7.13;;;;;;;-0.63;100.00;101340.47;4990869;28;20066;-67
2022/01/12 07:23:40;;;;;;;13.05;7.82;;;;;;;-0.51;100.00;101373.41;4990840;28;20217;-67
2022/01/12 07:26:07;;;;;;;12.75;6.97;;;;;;;-0.40;100.00;101334.72;4990653;28;20026;-69
2022/01/12 07:28:33;;;;;;;15.20;8.57;;;;;;;-0.40;100.00;101389.66;4989316;28;20026;-67
2022/01/12 07:30:58;;;;;;;15.70;7.55;;;;;;;-0.21;100.00;101373.72;4990876;28;20034;-66
2022/01/12 07:33:25;;;;;;;14.05;7.72;;;;;;;-0.23;100.00;101387.78;4990717;28;20428;-66
2022/01/12 07:35:52;;;;;;;14.05;8.13;;;;;;;-0.54;100.00;101339.97;4990597;28;20555;-66
2022/01/12 07:38:17;;;;;;;11.18;6.90;;;;;;;-0.59;100.00;101349.78;4990822;28;20045;-67
2022/01/12 07:40:43;;;;;;;11.15;7.00;;;;;;;-0.27;100.00;101398.47;4990400;28;20026;-67
2022/01/12 07:43:09;;;;;;;14.07;8.27;;;;;;;-0.28;100.00;101396.78;4990456;28;20031;-67
2022/01/12 07:45:36;;;;;;;13.90;7.65;;;;;;;-0.46;100.00;101411.03;4989365;28;20496;-67
2022/01/12 07:48:01;;;;;;;12.07;7.22;;;;;;;-0.82;100.00;101348.03;4989025;28;20031;-67
2022/01/12 07:50:27;;;;;;;13.18;7.00;;;;;;;-0.65;100.00;101359.53;4990578;28;20022;-67
2022/01/12 07:52:53;;;;;;;11.93;7.25;;;;;;;-0.71;100.00;101364.28;4990482;28;20034;-67
2022/01/12 07:55:23;;;;;;;14.18;7.28;;;;;;;-0.26;100.00;101406.00;4993190;28;20512;-67
2022/01/12 07:57:50;;;;;;;14.10;7.35;;;;;;;-0.33;100.00;101369.13;4994275;28;20022;-67
2022/01/12 08:00:17;;;;;;;10.70;6.95;;;;;;;-0.37;100.00;101413.88;4992803;28;20037;-67
2022/01/12 08:02:43;;;;;;;10.40;6.88;;;;;;;-0.39;100.00;101373.00;4993965;28;20129;-66
2022/01/12 08:05:09;;;;;;;10.93;6.93;;;;;;;-0.46;100.00;101401.91;4994056;28;20548;-67
2022/01/12 08:07:37;;;;;;;11.85;7.55;;;;;;;-0.53;100.00;101370.00;4993672;28;20441;-66
2022/01/12 08:10:04;;;;;;;12.07;7.40;;;;;;;-0.63;100.00;101372.91;4993346;28;20121;-67
2022/01/12 08:12:30;;;;;;;11.60;7.10;;;;;;;-0.13;100.00;101378.22;4994133;28;20041;-67
2022/01/12 08:14:55;;;;;;;10.05;6.30;;;;;;;-0.29;100.00;101432.53;4992372;28;20481;-67
2022/01/12 08:17:21;;;;;;;10.75;7.10;;;;;;;-0.27;100.00;101395.97;4993571;28;20440;-66
2022/01/12 08:19:46;;;;;;;13.30;7.70;;;;;;;0.21;100.00;101430.31;4993646;28;20026;-67
2022/01/12 08:22:12;;;;;;;13.48;6.95;;;;;;;-0.40;100.00;101393.81;4993363;28;20484;-67
2022/01/12 08:24:37;;;;;;;10.48;6.53;;;;;;;-0.27;100.00;101428.44;4993410;28;20031;-67
2022/01/12 08:27:03;;;;;;;11.25;6.63;;;;;;;-0.39;100.00;101390.50;4993623;28;20041;-67
2022/01/12 08:29:29;;;;;;;10.45;6.30;;;;;;;-0.41;100.00;101394.59;4993343;28;20467;-67
2022/01/12 08:31:55;;;;;;;11.63;6.72;;;;;;;-0.08;100.00;101439.19;4993786;28;20022;-66
2022/01/12 08:34:21;;;;;;;11.25;6.88;;;;;;;-0.07;100.00;101433.41;4993495;28;20037;-67
2022/01/12 08:36:46;;;;;;;10.52;6.57;;;;;;;0.04;100.00;101435.47;4993119;28;20480;-67
2022/01/12 08:39:12;;;;;;;12.07;6.95;;;;;;;0.01;100.00;101446.19;4992982;28;20030;-67
2022/01/12 08:41:38;;;;;;;10.57;6.43;;;;;;;0.04;100.00;101442.97;4993372;28;20034;-67
2022/01/12 08:44:08;;;;;;;10.70;6.68;;;;;;;0.20;100.00;101452.75;4993113;28;20030;-67
2022/01/12 08:46:35;;;;;;;11.60;7.22;;;;;;;0.12;100.00;101417.44;4993226;28;20031;-67
2022/01/12 08:49:01;;;;;;;11.73;6.57;;;;;;;0.44;100.00;101431.13;4993404;28;20089;-67
2022/01/12 08:51:26;;;;;;;12.98;7.15;;;;;;;0.06;100.00;101456.38;4991615;28;20030;-67
2022/01/12 08:53:52;;;;;;;10.13;6.35;;;;;;;-0.06;100.00;101432.59;4992793;28;20475;-67
2022/01/12 08:56:19;;;;;;;12.68;7.57;;;;;;;-0.47;100.00;101401.84;4992920;28;20029;-67
2022/01/12 08:58:45;;;;;;;11.55;6.80;;;;;;;0.10;100.00;101445.69;4992910;28;20038;-68
2022/01/12 09:01:10;;;;;;;11.32;7.50;;;;;;;0.11;100.00;101437.41;4991573;28;20038;-66
2022/01/12 09:03:37;;;;;;;9.88;6.60;;;;;;;-0.08;100.00;101391.72;4992525;28;20054;-66
2022/01/12 09:06:05;;;;;;;10.70;6.93;;;;;;;0.17;100.00;101442.63;4992242;28;20030;-67
2022/01/12 09:08:30;;;;;;;10.30;6.22;;;;;;;-0.03;100.00;101402.75;4992259;28;20107;-66
2022/01/12 09:10:56;;;;;;;10.93;6.70;;;;;;;0.04;100.00;101427.97;4991177;28;20042;-66
2022/01/12 09:13:21;;;;;;;9.90;6.68;;;;;;;-0.01;100.00;101380.31;4991453;28;20031;-66
2022/01/12 09:15:47;;;;;;;12.90;6.68;;;;;;;0.45;100.00;101437.84;4991217;28;20489;-66
2022/01/12 09:18:13;;;;;;;9.65;6.50;;;;;;;0.37;100.00;101435.06;4991015;28;20031;-66
2022/01/12 09:20:38;;;;;;;10.57;6.43;;;;;;;0.24;100.00;101432.06;4992380;28;20534;-67
2022/01/12 09:23:04;;;;;;;11.88;7.43;;;;;;;0.04;100.00;101385.50;4992246;28;20031;-66
2022/01/12 09:25:33;;;;;;;11.75;6.78;;;;;;;0.29;100.00;101393.06;4992396;28;20417;-66
2022/01/12 09:28:02;;;;;;;11.60;7.15;;;;;;;0.31;100.00;101409.84;4992375;28;20113;-66
2022/01/12 09:30:28;;;;;;;11.25;6.22;;;;;;;0.08;100.00;101419.81;4992211;28;20409;-67
2022/01/12 09:32:54;;;;;;;10.88;6.47;;;;;;;0.20;100.00;101402.75;4992598;28;20030;-66
2022/01/12 09:35:19;;;;;;;11.38;6.45;;;;;;;0.35;100.00;101363.28;4992117;28;20137;-66
2022/01/12 09:37:45;;;;;;;9.30;6.00;;;;;;;0.18;100.00;101362.69;4992346;28;20038;-66
2022/01/12 09:40:11;;;;;;;10.88;6.40;;;;;;;0.48;100.00;101410.44;4992083;28;20030;-65
2022/01/12 09:42:37;;;;;;;11.23;6.22;;;;;;;0.33;100.00;101409.88;4990838;28;20057;-65
2022/01/12 09:45:03;;;;;;;10.65;6.40;;;;;;;-0.02;100.00;101371.13;4991844;28;20066;-67
2022/01/12 09:47:29;;;;;;;10.75;7.28;;;;;;;0.05;100.00;101340.56;4992039;28;20057;-65
2022/01/12 09:49:54;;;;;;;12.40;7.75;;;;;;;0.56;100.00;101401.53;4991941;28;20135;-67
2022/01/12 09:52:20;;;;;;;11.02;6.97;;;;;;;0.21;100.00;101362.81;4991505;28;20045;-68
2022/01/12 09:54:46;;;;;;;11.25;6.65;;;;;;;-0.01;100.00;101336.19;4990657;28;20053;-66
2022/01/12 09:57:13;;;;;;;9.88;6.65;;;;;;;0.42;100.00;101416.06;4992206;28;20558;-65
2022/01/12 09:59:39;;;;;;;11.30;6.95;;;;;;;0.28;100.00;101387.22;4991703;28;20034;-65
2022/01/12 10:02:13;;;;;;;12.20;7.57;;;;;;;0.69;100.00;101412.03;4990260;28;20072;-65
2022/01/12 10:04:38;;;;;;;10.95;7.25;;;;;;;0.03;100.00;101357.13;4989924;28;20041;-65
2022/01/12 10:07:04;;;;;;;13.45;7.70;;;;;;;0.36;100.00;101372.47;4991737;28;20030;-65
2022/01/12 10:09:45;;;;;;;14.07;7.72;;;;;;;0.14;100.00;101380.03;4991407;28;20030;-65
2022/01/12 10:12:13;;;;;;;14.32;7.60;;;;;;;0.09;100.00;101349.88;4991574;28;20120;-65
2022/01/12 10:14:44;;;;;;;12.88;7.70;;;;;;;0.84;100.00;101434.25;4991475;28;20034;-68
2022/01/12 10:17:11;;;;;;;11.75;5.65;;;;;;;0.39;100.00;101367.59;4990386;28;20061;-67
2022/01/12 10:19:38;;;;;;;13.35;7.50;;;;;;;0.70;100.00;101380.38;4991563;28;20031;-65
2022/01/12 10:22:06;;;;;;;12.68;7.68;;;;;;;0.84;100.00;101445.09;4990292;28;20036;-65
2022/01/12 10:24:39;;;;;;;12.30;7.55;;;;;;;0.78;100.00;101427.38;4991238;28;20039;-65
2022/01/12 10:27:19;;;;;;;12.38;7.88;;;;;;;0.17;100.00;101350.13;4991339;28;20037;-65
2022/01/12 10:29:54;;;;;;;10.18;7.10;;;;;;;0.95;100.00;101414.59;4989515;28;20038;-64
2022/01/12 10:32:20;;;;;;;13.70;8.68;;;;;;;0.98;100.00;101418.03;4989786;28;20033;-67
2022/01/12 10:34:47;;;;;;;13.43;8.00;;;;;;;0.91;100.00;101381.09;4991264;28;20034;-67
2022/01/12 10:37:17;;;;;;;12.27;7.40;;;;;;;0.31;100.00;101389.84;4991358;28;20164;-66
2022/01/12 10:39:46;;;;;;;14.13;8.43;;;;;;;0.68;100.00;101390.31;4991211;28;20026;-66
2022/01/12 10:42:13;;;;;;;12.60;7.28;;;;;;;0.72;100.00;101368.75;4991038;28;20029;-66
2022/01/12 10:44:40;;;;;;;13.18;8.10;;;;;;;1.00;100.00;101420.59;4991200;28;20034;-66
2022/01/12 10:47:19;;;;;;;13.18;8.07;;;;;;;0.98;100.00;101427.19;4991196;28;20049;-66
2022/01/12 10:49:53;;;;;;;13.13;7.40;;;;;;;0.83;100.00;101440.88;4991116;28;20088;-67
2022/01/12 10:52:19;;;;;;;10.95;7.20;;;;;;;1.16;100.00;101433.69;4991069;28;20034;-67
2022/01/12 10:54:51;;;;;;;13.25;7.65;;;;;;;0.64;100.00;101412.69;4990759;28;20480;-67
2022/01/12 10:57:22;;;;;;;11.88;7.30;;;;;;;1.12;100.00;101424.38;4991351;28;20397;-67
2022/01/12 11:00:09;;;;;;;9.70;6.22;;;;;;;0.64;100.00;101435.19;4990997;28;20031;-67
2022/01/12 11:02:37;;;;;;;12.45;7.70;;;;;;;0.72;100.00;101431.31;4990952;28;20117;-66
2022/01/12 11:05:05;;;;;;;12.93;7.88;;;;;;;0.74;100.00;101432.22;4991022;28;20039;-67
2022/01/12 11:07:30;;;;;;;11.82;7.63;;;;;;;0.84;100.00;101427.59;4991160;28;20096;-67
2022/01/12 11:09:59;;;;;;;11.05;7.10;;;;;;;0.57;100.00;101373.25;4989558;28;20038;-67
2022/01/12 11:12:25;;;;;;;12.10;7.45;;;;;;;0.68;100.00;101362.81;4990963;28;20026;-66
2022/01/12 11:14:51;;;;;;;10.73;6.57;;;;;;;0.75;100.00;101398.91;4989471;28;20060;-67
2022/01/12 11:17:17;;;;;;;9.48;6.10;;;;;;;1.24;100.00;101427.28;4990712;28;20035;-67
2022/01/12 11:20:17;;;;;;;9.48;6.75;;;;;;;0.91;100.00;101430.31;4990630;28;20034;-66
2022/01/12 11:23:03;;;;;;;9.40;5.68;;;;;;;0.72;100.00;101432.16;4979096;28;20039;-67
2022/01/12 11:25:39;;;;;;;11.05;6.50;;;;;;;1.06;100.00;101436.69;4989354;28;20416;-67
2022/01/12 11:28:07;;;;;;;13.90;8.95;;;;;;;1.57;100.00;101425.84;4992046;28;20096;-67
2022/01/12 11:30:33;;;;;;;10.82;7.35;;;;;;;0.82;100.00;101391.66;4993194;28;20038;-66
2022/01/12 11:33:07;;;;;;;11.73;7.35;;;;;;;1.20;100.00;101419.59;4993025;28;20096;-66
2022/01/12 11:35:37;;;;;;;11.25;6.72;;;;;;;1.57;100.00;101393.28;4993362;28;20066;-66
2022/01/12 11:38:04;;;;;;;9.85;6.35;;;;;;;1.16;100.00;101430.31;4994394;28;20030;-67
2022/01/12 11:40:42;;;;;;;11.27;6.75;;;;;;;1.46;100.00;101369.56;4994100;28;20065;-66
2022/01/12 11:43:17;;;;;;;10.70;7.00;;;;;;;0.96;100.00;101378.72;4994408;28;20401;-66
2022/01/12 11:45:43;;;;;;;10.30;6.75;;;;;;;1.56;100.00;101428.31;4994322;28;20106;-67
2022/01/12 11:48:08;;;;;;;9.50;6.13;;;;;;;1.04;100.00;101383.19;4992749;28;20125;-66
2022/01/12 11:50:34;;;;;;;10.32;6.38;;;;;;;1.43;100.00;101408.66;4993982;28;20119;-67
2022/01/12 11:52:59;;;;;;;9.93;6.47;;;;;;;0.92;100.00;101322.72;4994216;28;20107;-66
2022/01/12 11:55:31;;;;;;;8.95;6.13;;;;;;;1.04;100.00;101385.69;4992555;28;20041;-67
2022/01/12 11:58:03;;;;;;;10.23;6.22;;;;;;;1.25;100.00;101346.31;4994043;28;20124;-67
2022/01/12 12:00:30;;;;;;;;;;;;;;;1.62;100.00;101424.31;4993180;28;20022;-66
2022/01/12 12:02:57;;;;;;;8.02;5.70;;;;;;;1.11;100.00;101367.56;4994056;28;20368;-66
2022/01/12 12:05:27;;;;;;;8.52;5.70;;;;;;;1.56;99.59;101396.59;4993855;28;20042;-67
2022/01/12 12:08:01;;;;;;;10.90;6.53;;;;;;;1.31;100.00;101388.22;4993676;28;20030;-66
2022/01/12 12:10:27;;;;;;;10.73;6.47;;;;;;;1.57;99.56;101423.34;4993670;28;20033;-66
2022/01/12 12:12:55;;;;;;;9.20;6.05;;;;;;;1.70;100.00;101389.50;4993655;28;20393;-66
2022/01/12 12:15:23;;;;;;;10.43;6.95;;;;;;;1.67;100.00;101422.81;4993636;28;20026;-66
2022/01/12 12:17:50;;;;;;;11.68;7.30;;;;;;;1.88;100.00;101369.13;4993667;28;20033;-67
2022/01/12 12:20:18;;;;;;;10.30;6.72;;;;;;;2.05;100.00;101418.97;4993425;28;20045;-67
2022/01/12 12:22:46;;;;;;;9.23;6.32;;;;;;;1.50;98.29;101428.13;4993607;28;20041;-67
2022/01/12 12:25:14;;;;;;;10.27;7.15;;;;;;;2.19;96.50;101411.84;4993565;28;20034;-66
2022/01/12 12:27:46;;;;;;;10.32;6.45;;;;;;;1.03;94.26;101366.47;4993360;28;20026;-66
2022/01/12 12:30:17;;;;;;;10.70;6.95;;;;;;;2.34;94.75;101382.16;4993363;28;20022;-66
2022/01/12 12:32:52;;;;;;;10.45;6.60;;;;;;;1.60;97.00;101390.00;4993168;28;20456;-66
2022/01/12 12:35:29;;;;;;;9.48;6.35;;;;;;;1.13;99.63;101377.66;4993494;28;20041;-66
2022/01/12 12:37:59;;;;;;;12.25;5.95;;;;;;;1.24;100.00;101447.31;4993275;28;20046;-66
2022/01/12 12:40:27;;;;;;;8.20;5.57;;;;;;;1.12;98.91;101441.88;4991113;28;20041;-66
2022/01/12 12:43:08;;;;;;;9.45;5.97;;;;;;;1.45;100.00;101453.00;4993087;28;20113;-66
2022/01/12 12:45:41;;;;;;;10.05;6.40;;;;;;;1.19;100.00;101452.97;4993289;28;20037;-66
2022/01/12 12:48:08;;;;;;;10.63;6.72;;;;;;;0.74;100.00;101460.59;4993187;28;20493;-66
2022/01/12 12:50:34;;;;;;;9.75;6.85;;;;;;;0.91;100.00;101463.69;4992946;28;20563;-66
2022/01/12 12:53:00;;;;;;;11.38;6.88;;;;;;;0.44;100.00;101371.09;4993158;28;20042;-67
2022/01/12 12:55:32;;;;;;;14.48;8.40;;;;;;;0.85;100.00;101383.41;4993366;28;20085;-66
2022/01/12 12:57:57;;;;;;;11.75;7.35;;;;;;;1.84;97.52;101432.53;4993077;28;20041;-67
2022/01/12 13:00:25;;;;;;;9.23;6.32;;;;;;;1.33;100.00;101447.59;4992905;28;20022;-67
2022/01/12 13:02:56;;;;;;;13.23;7.95;;;;;;;0.86;100.00;101420.13;4992713;28;20063;-66
2022/01/12 13:05:26;;;;;;;11.52;7.57;;;;;;;0.74;100.00;101458.09;4991460;28;20026;-66